createdAt,value
2023-06-06T00:01:58.504Z,5.45
2023-06-06T00:04:46.049Z,5.43
2023-06-06T00:07:33.266Z,4.97
2023-06-06T00:10:19.384Z,5.03
2023-06-06T00:13:04.402Z,4.72
2023-06-06T00:15:49.513Z,5.25
2023-06-06T00:18:34.637Z,4.40
2023-06-06T00:21:21.905Z,4.80
2023-06-06T00:24:06.624Z,4.60
2023-06-06T00:26:51.907Z,3.90
2023-06-06T00:29:36.877Z,4.18
2023-06-06T00:32:21.956Z,4.95
2023-06-06T00:35:06.730Z,4.57
2023-06-06T00:37:51.350Z,4.22
2023-06-06T00:40:36.446Z,3.88
2023-06-06T00:43:21.553Z,5.50
2023-06-06T00:46:07.108Z,9.80
2023-06-06T00:48:52.123Z,9.75
2023-06-06T00:51:38.023Z,9.75
2023-06-06T00:54:23.397Z,11.05
2023-06-06T00:57:10.380Z,11.68
2023-06-06T00:59:55.977Z,11.30
2023-06-06T01:02:44.404Z,11.18
2023-06-06T01:05:30.428Z,11.48
2023-06-06T01:08:16.770Z,12.63
2023-06-06T01:11:10.003Z,10.68
2023-06-06T01:14:29.070Z,10.10
2023-06-06T01:17:17.813Z,8.73
2023-06-06T01:20:07.818Z,8.85
2023-06-06T01:22:53.814Z,8.60
2023-06-06T01:25:41.155Z,10.07
2023-06-06T01:28:28.313Z,11.60
2023-06-06T01:31:19.492Z,11.88
2023-06-06T01:34:11.565Z,12.57
2023-06-06T01:37:08.033Z,14.43
2023-06-06T01:39:56.241Z,12.57
2023-06-06T01:42:45.215Z,13.45
2023-06-06T01:45:32.723Z,11.93
2023-06-06T01:48:19.460Z,14.57
2023-06-06T01:51:05.904Z,15.10
2023-06-06T01:53:51.112Z,13.73
2023-06-06T01:56:35.920Z,12.60
2023-06-06T01:59:21.450Z,10.95
2023-06-06T02:02:07.217Z,11.48
2023-06-06T02:04:52.006Z,12.55
2023-06-06T02:07:38.020Z,11.10
2023-06-06T02:10:25.246Z,11.50
2023-06-06T02:13:10.097Z,10.88
2023-06-06T02:15:55.719Z,10.45
2023-06-06T02:18:45.063Z,9.38
2023-06-06T02:21:30.106Z,9.48
2023-06-06T02:24:14.998Z,8.65
2023-06-06T02:26:59.941Z,7.65
2023-06-06T02:29:44.688Z,8.02
2023-06-06T02:32:30.844Z,9.00
2023-06-06T02:35:16.860Z,8.02
2023-06-06T02:38:01.596Z,6.82
2023-06-06T02:40:46.471Z,6.80
2023-06-06T02:43:31.694Z,6.38
2023-06-06T02:46:16.793Z,5.88
2023-06-06T02:49:01.763Z,6.70
2023-06-06T02:51:47.370Z,6.35
2023-06-06T02:54:32.304Z,5.97
2023-06-06T02:57:17.200Z,5.72
2023-06-06T03:00:08.300Z,6.03
2023-06-06T03:02:53.438Z,5.82
2023-06-06T03:05:39.372Z,6.20
2023-06-06T03:08:24.361Z,6.50
2023-06-06T03:11:09.312Z,5.97
2023-06-06T03:13:55.146Z,5.50
2023-06-06T03:16:40.678Z,6.47
2023-06-06T03:19:26.187Z,6.95
2023-06-06T03:22:13.404Z,7.05
2023-06-06T03:24:59.163Z,7.53
2023-06-06T03:27:44.151Z,6.28
2023-06-06T03:30:29.255Z,5.50
2023-06-06T03:33:16.194Z,4.97
2023-06-06T03:36:03.716Z,4.10
2023-06-06T03:38:49.346Z,4.10
2023-06-06T03:41:35.611Z,3.55
2023-06-06T03:44:20.911Z,3.53
2023-06-06T03:47:06.326Z,3.95
2023-06-06T03:49:51.461Z,3.78
2023-06-06T03:52:36.945Z,3.25
2023-06-06T03:55:23.078Z,3.03
2023-06-06T03:58:07.985Z,3.08
2023-06-06T04:00:53.404Z,2.80
2023-06-06T04:03:39.206Z,3.17
2023-06-06T04:06:26.121Z,2.85
2023-06-06T04:09:13.824Z,2.53
2023-06-06T04:11:58.520Z,3.05
2023-06-06T04:14:43.698Z,3.30
2023-06-06T04:17:28.878Z,2.63
2023-06-06T04:20:13.864Z,3.17
2023-06-06T04:23:00.885Z,3.50
2023-06-06T04:25:45.816Z,3.40
2023-06-06T04:28:32.234Z,3.55
2023-06-06T04:31:17.695Z,3.42
2023-06-06T04:34:04.381Z,3.97
2023-06-06T04:36:52.322Z,3.83
2023-06-06T04:39:39.926Z,3.90
2023-06-06T04:42:33.427Z,3.63
2023-06-06T04:45:18.252Z,3.80
2023-06-06T04:48:03.525Z,4.03
2023-06-06T04:50:50.048Z,3.67
2023-06-06T04:53:45.532Z,3.88
2023-06-06T04:56:30.679Z,4.00
2023-06-06T04:59:17.814Z,3.63
2023-06-06T05:02:03.520Z,3.88
2023-06-06T05:04:55.900Z,3.55
2023-06-06T05:07:40.790Z,3.53
2023-06-06T05:10:26.233Z,3.80
2023-06-06T05:13:19.891Z,3.97
2023-06-06T05:16:14.636Z,3.50
2023-06-06T05:18:59.716Z,3.90
2023-06-06T05:21:45.023Z,3.58
2023-06-06T05:24:31.051Z,3.45
2023-06-06T05:27:16.340Z,3.10
2023-06-06T05:30:06.427Z,3.28
2023-06-06T05:32:53.108Z,3.20
2023-06-06T05:35:38.135Z,3.22
2023-06-06T05:38:25.022Z,3.10
2023-06-06T05:41:21.805Z,3.72
2023-06-06T05:44:07.505Z,3.58
2023-06-06T05:47:05.381Z,3.03
2023-06-06T05:49:56.792Z,2.47
2023-06-06T05:52:41.947Z,3.00
2023-06-06T05:55:32.387Z,3.08
2023-06-06T05:58:22.757Z,3.50
2023-06-06T06:01:10.261Z,3.17
2023-06-06T06:03:55.639Z,3.33
2023-06-06T06:06:52.960Z,3.00
2023-06-06T06:09:38.153Z,2.95
2023-06-06T06:12:29.473Z,3.03
2023-06-06T06:15:14.460Z,2.72
2023-06-06T06:18:08.236Z,2.97
2023-06-06T06:20:56.778Z,2.50
2023-06-06T06:23:42.479Z,2.95
2023-06-06T06:26:27.438Z,2.80
2023-06-06T06:29:12.646Z,2.67
2023-06-06T06:32:04.825Z,2.70
2023-06-06T06:34:54.968Z,2.70
2023-06-06T06:37:45.282Z,2.95
2023-06-06T06:40:32.996Z,2.92
2023-06-06T06:43:18.138Z,2.63
2023-06-06T06:46:13.306Z,2.78
2023-06-06T06:48:58.448Z,2.83
2023-06-06T06:51:44.270Z,2.90
2023-06-06T06:54:29.878Z,2.53
2023-06-06T06:57:17.478Z,2.90
2023-06-06T07:00:13.313Z,2.45
2023-06-06T07:03:00.530Z,2.78
2023-06-06T07:05:55.754Z,3.00
2023-06-06T07:08:43.073Z,3.13
2023-06-06T07:11:28.178Z,3.00
2023-06-06T07:14:13.091Z,2.65
2023-06-06T07:16:58.400Z,2.70
2023-06-06T07:19:43.984Z,2.53
2023-06-06T07:22:29.229Z,2.70
2023-06-06T07:25:14.747Z,3.20
2023-06-06T07:27:59.697Z,3.00
2023-06-06T07:30:45.526Z,3.00
2023-06-06T07:33:37.585Z,3.03
2023-06-06T07:36:22.590Z,2.97
2023-06-06T07:39:07.605Z,2.67
2023-06-06T07:41:57.376Z,3.03
2023-06-06T07:47:27.439Z,3.10
2023-06-06T07:50:12.415Z,2.80
2023-06-06T07:52:57.336Z,2.63
2023-06-06T07:55:44.204Z,2.45
2023-06-06T07:59:01.462Z,2.55
2023-06-06T08:01:46.606Z,2.50
2023-06-06T08:04:34.148Z,2.45
2023-06-06T08:07:20.684Z,2.30
2023-06-06T08:10:15.846Z,2.67
2023-06-06T08:13:04.870Z,2.65
2023-06-06T08:15:50.660Z,2.53
2023-06-06T08:18:38.078Z,2.50
2023-06-06T08:21:26.469Z,2.28
2023-06-06T08:24:11.717Z,2.13
2023-06-06T08:26:58.044Z,2.35
2023-06-06T08:29:42.844Z,2.33
2023-06-06T08:32:30.877Z,2.40
2023-06-06T08:35:15.652Z,2.03
2023-06-06T08:38:01.046Z,2.10
2023-06-06T08:40:46.465Z,1.80
2023-06-06T08:43:37.248Z,2.10
2023-06-06T08:46:25.606Z,2.00
2023-06-06T08:49:11.285Z,1.80
2023-06-06T08:51:57.661Z,2.10
2023-06-06T08:54:46.171Z,1.90
2023-06-06T08:57:49.133Z,2.03
2023-06-06T09:00:38.831Z,1.73
2023-06-06T09:03:25.522Z,2.10
2023-06-06T09:06:14.317Z,2.20
2023-06-06T09:08:59.408Z,2.30
2023-06-06T09:11:46.769Z,2.00
2023-06-06T09:14:33.990Z,2.13
2023-06-06T09:17:19.286Z,2.22
2023-06-06T09:20:17.401Z,2.40
2023-06-06T09:23:10.551Z,1.50
2023-06-06T09:25:55.912Z,2.13
2023-06-06T09:28:41.303Z,2.10
2023-06-06T09:31:33.407Z,2.20
2023-06-06T09:34:27.696Z,2.05
2023-06-06T09:37:15.315Z,2.10
2023-06-06T09:40:21.438Z,2.10
2023-06-06T09:43:09.450Z,1.90
2023-06-06T09:46:04.880Z,2.08
2023-06-06T09:48:59.161Z,2.17
2023-06-06T09:51:44.457Z,2.25
2023-06-06T09:54:29.439Z,1.75
2023-06-06T09:57:14.661Z,2.10
2023-06-06T10:00:02.992Z,2.20
2023-06-06T10:02:58.971Z,2.00
2023-06-06T10:05:50.385Z,1.83
2023-06-06T10:08:37.235Z,1.90
2023-06-06T10:11:22.920Z,2.00
2023-06-06T10:14:09.409Z,2.22
2023-06-06T10:16:55.320Z,2.20
2023-06-06T10:19:41.844Z,2.47
2023-06-06T10:22:30.547Z,2.28
2023-06-06T10:25:19.559Z,2.20
2023-06-06T10:28:11.548Z,2.22
2023-06-06T10:31:07.184Z,2.00
2023-06-06T10:33:55.665Z,2.53
2023-06-06T10:36:44.224Z,2.22
2023-06-06T10:39:30.183Z,2.40
2023-06-06T10:42:16.084Z,2.25
2023-06-06T10:45:00.753Z,2.20
2023-06-06T10:47:49.235Z,2.20
2023-06-06T10:53:20.947Z,2.40
2023-06-06T10:56:09.588Z,2.53
2023-06-06T10:58:55.109Z,2.22
2023-06-06T11:01:48.193Z,2.10
2023-06-06T11:04:39.930Z,2.10
2023-06-06T11:07:28.333Z,1.92
2023-06-06T11:10:13.046Z,2.40
2023-06-06T11:13:27.072Z,2.28
2023-06-06T11:16:12.220Z,2.20
2023-06-06T11:19:04.272Z,2.10
2023-06-06T11:21:50.767Z,1.92
2023-06-06T11:24:36.640Z,2.63
2023-06-06T11:27:22.496Z,2.15
2023-06-06T11:30:08.959Z,2.38
2023-06-06T11:32:56.047Z,2.38
2023-06-06T11:35:41.167Z,2.20
2023-06-06T11:38:27.719Z,2.40
2023-06-06T11:41:13.007Z,2.10
2023-06-06T11:43:58.134Z,2.05
2023-06-06T11:46:55.553Z,2.00
2023-06-06T11:49:47.770Z,2.08
2023-06-06T11:52:33.141Z,1.98
2023-06-06T11:55:18.250Z,2.25
2023-06-06T11:58:05.068Z,2.35
2023-06-06T12:00:56.772Z,2.30
2023-06-06T12:03:43.690Z,2.10
2023-06-06T12:06:29.260Z,1.90
2023-06-06T12:09:15.173Z,2.17
2023-06-06T12:12:04.732Z,2.10
2023-06-06T12:14:57.665Z,2.15
2023-06-06T12:17:42.354Z,2.20
2023-06-06T12:20:27.357Z,1.92
2023-06-06T12:23:12.481Z,2.05
2023-06-06T12:25:58.020Z,2.25
2023-06-06T12:28:57.578Z,2.13
2023-06-06T12:31:46.398Z,2.00
2023-06-06T12:34:59.892Z,2.55
2023-06-06T12:37:48.369Z,2.00
2023-06-06T12:40:35.964Z,1.88
2023-06-06T12:43:21.411Z,2.10
2023-06-06T12:46:06.355Z,2.05
2023-06-06T12:48:51.385Z,2.00
2023-06-06T12:51:39.896Z,2.20
2023-06-06T12:54:25.620Z,2.10
2023-06-06T12:57:12.399Z,1.77
2023-06-06T12:59:58.115Z,2.17
2023-06-06T13:02:44.032Z,2.08
2023-06-06T13:05:29.048Z,2.30
2023-06-06T13:08:22.287Z,2.10
2023-06-06T13:11:18.390Z,2.00
2023-06-06T13:14:03.447Z,1.80
2023-06-06T13:17:10.208Z,1.90
2023-06-06T13:19:56.944Z,2.05
2023-06-06T13:22:42.541Z,2.20
2023-06-06T13:25:27.594Z,2.20
2023-06-06T13:28:12.584Z,2.00
2023-06-06T13:30:57.753Z,1.83
2023-06-06T13:33:42.592Z,2.22
2023-06-06T13:36:27.571Z,2.20
2023-06-06T13:39:12.571Z,2.05
2023-06-06T13:41:57.851Z,2.00
2023-06-06T13:44:42.920Z,1.88
2023-06-06T13:47:27.906Z,2.00
2023-06-06T13:50:13.196Z,1.80
2023-06-06T13:52:57.811Z,1.88
2023-06-06T13:55:43.040Z,2.05
2023-06-06T13:58:31.825Z,2.03
2023-06-06T14:01:19.996Z,2.05
2023-06-06T14:04:06.216Z,1.85
2023-06-06T14:06:51.978Z,1.88
2023-06-06T14:09:37.102Z,1.77
2023-06-06T14:12:22.203Z,2.00
2023-06-06T14:15:07.464Z,1.95
2023-06-06T14:17:54.247Z,1.80
2023-06-06T14:21:00.107Z,2.03
2023-06-06T14:23:48.408Z,1.90
2023-06-06T14:26:33.326Z,2.00
2023-06-06T14:29:18.597Z,2.10
2023-06-06T14:32:04.063Z,1.80
2023-06-06T14:34:49.065Z,2.05
2023-06-06T14:37:33.914Z,1.85
2023-06-06T14:40:18.758Z,1.85
2023-06-06T14:43:03.814Z,2.33
2023-06-06T14:45:48.663Z,2.25
2023-06-06T14:48:33.670Z,2.17
2023-06-06T14:51:18.646Z,2.00
2023-06-06T14:54:03.565Z,1.90
2023-06-06T14:56:48.087Z,1.95
2023-06-06T14:59:33.136Z,1.85
2023-06-06T15:02:18.552Z,1.58
2023-06-06T15:05:03.710Z,1.90
2023-06-06T15:07:48.567Z,1.90
2023-06-06T15:10:33.541Z,1.90
2023-06-06T15:13:18.743Z,1.90
2023-06-06T15:16:09.507Z,1.88
2023-06-06T15:18:56.876Z,1.98
2023-06-06T15:21:41.585Z,2.25
2023-06-06T15:24:28.997Z,1.90
2023-06-06T15:27:13.905Z,1.80
2023-06-06T15:29:58.818Z,1.95
2023-06-06T15:32:43.735Z,2.20
2023-06-06T15:35:28.823Z,1.90
2023-06-06T15:38:15.705Z,1.90
2023-06-06T15:41:00.639Z,2.00
2023-06-06T15:43:45.667Z,1.88
2023-06-06T15:46:30.845Z,2.00
2023-06-06T15:49:18.440Z,1.90
2023-06-06T15:52:03.480Z,2.10
2023-06-06T15:54:48.153Z,2.00
2023-06-06T15:57:33.021Z,2.20
2023-06-06T16:00:18.675Z,2.10
2023-06-06T16:03:05.386Z,2.00
2023-06-06T16:05:50.291Z,2.05
2023-06-06T16:08:35.301Z,2.30
2023-06-06T16:11:21.206Z,2.20
2023-06-06T16:14:06.536Z,2.50
2023-06-06T16:16:52.184Z,2.10
2023-06-06T16:19:37.066Z,2.13
2023-06-06T16:22:22.352Z,2.10
2023-06-06T16:25:07.793Z,2.40
2023-06-06T16:27:52.390Z,2.40
2023-06-06T16:30:37.559Z,2.42
2023-06-06T16:33:22.360Z,2.42
2023-06-06T16:36:07.347Z,2.40
2023-06-06T16:38:52.306Z,2.70
2023-06-06T16:41:37.418Z,2.97
2023-06-06T16:44:22.544Z,2.40
2023-06-06T16:47:07.494Z,2.70
2023-06-06T16:49:52.623Z,3.15
2023-06-06T16:52:40.852Z,2.70
2023-06-06T16:55:26.005Z,2.67
2023-06-06T16:58:10.807Z,2.78
2023-06-06T17:00:56.545Z,4.20
2023-06-06T17:03:41.704Z,3.10
2023-06-06T17:06:26.556Z,2.92
2023-06-06T17:09:11.886Z,2.50
2023-06-06T17:11:56.928Z,2.42
2023-06-06T17:14:42.126Z,2.50
2023-06-06T17:17:27.065Z,1.90
2023-06-06T17:20:13.046Z,2.38
2023-06-06T17:22:58.071Z,2.20
2023-06-06T17:25:50.994Z,1.92
2023-06-06T17:28:36.508Z,2.40
2023-06-06T17:31:21.788Z,2.47
2023-06-06T17:34:06.402Z,2.40
2023-06-06T17:36:51.505Z,2.35
2023-06-06T17:39:36.448Z,2.25
2023-06-06T17:42:21.531Z,2.30
2023-06-06T17:45:08.050Z,2.35
2023-06-06T17:47:52.847Z,2.35
2023-06-06T17:50:38.008Z,2.90
2023-06-06T17:53:23.313Z,2.95
2023-06-06T17:56:07.856Z,2.90
2023-06-06T17:58:53.226Z,2.60
2023-06-06T18:01:37.702Z,3.00
2023-06-06T18:04:22.909Z,3.13
2023-06-06T18:07:07.916Z,3.50
2023-06-06T18:09:52.755Z,3.45
2023-06-06T18:12:37.757Z,3.83
2023-06-06T18:15:23.255Z,4.30
2023-06-06T18:18:08.397Z,4.05
2023-06-06T18:20:53.195Z,3.85
2023-06-06T18:23:40.060Z,3.70
2023-06-06T18:26:25.041Z,4.03
2023-06-06T18:29:10.199Z,3.40
2023-06-06T18:31:55.835Z,4.05
2023-06-06T18:34:40.731Z,3.70
2023-06-06T18:37:25.775Z,3.60
2023-06-06T18:40:14.624Z,3.80
2023-06-06T18:42:59.070Z,3.33
2023-06-06T18:45:48.455Z,3.45
2023-06-06T18:48:34.024Z,3.08
2023-06-06T18:51:18.886Z,3.17
2023-06-06T18:54:03.919Z,3.08
2023-06-06T18:56:48.494Z,3.55
2023-06-06T18:59:34.264Z,3.85
2023-06-06T19:02:18.877Z,3.50
2023-06-06T19:05:06.618Z,3.45
2023-06-06T19:07:51.399Z,3.45
2023-06-06T19:10:36.666Z,3.25
2023-06-06T19:13:22.271Z,3.20
2023-06-06T19:16:07.479Z,3.20
2023-06-06T19:18:52.291Z,3.15
2023-06-06T19:21:37.114Z,2.78
2023-06-06T19:24:21.929Z,2.80
2023-06-06T19:27:07.040Z,2.83
2023-06-06T19:29:51.815Z,3.20
2023-06-06T19:32:36.676Z,3.28
2023-06-06T19:35:22.151Z,3.03
2023-06-06T19:38:07.336Z,3.05
2023-06-06T19:40:52.119Z,2.78
2023-06-06T19:43:37.855Z,2.80
2023-06-06T19:46:22.762Z,3.10
2023-06-06T19:49:09.136Z,2.97
2023-06-06T19:51:54.052Z,3.10
2023-06-06T19:54:39.505Z,2.85
2023-06-06T19:57:24.352Z,2.97
2023-06-06T20:00:10.142Z,3.25
2023-06-06T20:02:57.892Z,3.20
2023-06-06T20:05:42.964Z,3.30
2023-06-06T20:08:27.951Z,3.00
2023-06-06T20:11:13.153Z,2.78
2023-06-06T20:14:00.165Z,2.85
2023-06-06T20:16:45.872Z,3.05
2023-06-06T20:19:31.354Z,2.90
2023-06-06T20:22:16.116Z,3.40
2023-06-06T20:25:01.361Z,3.42
2023-06-06T20:27:46.113Z,3.33
2023-06-06T20:30:32.395Z,3.30
2023-06-06T20:33:20.233Z,3.42
2023-06-06T20:36:06.264Z,3.75
2023-06-06T20:38:51.839Z,3.63
2023-06-06T20:41:36.903Z,3.08
2023-06-06T20:44:22.184Z,3.30
2023-06-06T20:47:07.390Z,3.50
2023-06-06T20:49:52.190Z,3.83
2023-06-06T20:52:38.293Z,3.50
2023-06-06T20:55:23.098Z,3.38
2023-06-06T20:58:08.679Z,3.63
2023-06-06T21:00:54.064Z,3.30
2023-06-06T21:03:38.820Z,3.50
2023-06-06T21:06:23.809Z,3.67
2023-06-06T21:09:08.553Z,3.60
2023-06-06T21:11:53.684Z,3.90
2023-06-06T21:14:38.217Z,3.50
2023-06-06T21:17:23.354Z,3.40
2023-06-06T21:20:09.627Z,3.33
2023-06-06T21:22:54.486Z,3.45
2023-06-06T21:25:40.336Z,3.30
2023-06-06T21:28:24.922Z,3.47
2023-06-06T21:31:10.575Z,3.83
2023-06-06T21:33:55.399Z,4.00
2023-06-06T21:36:40.713Z,4.10
2023-06-06T21:39:25.399Z,3.90
2023-06-06T21:42:10.452Z,3.85
2023-06-06T21:44:55.316Z,3.47
2023-06-06T21:47:40.564Z,3.50
2023-06-06T21:50:26.957Z,3.70
2023-06-06T21:53:12.184Z,3.95
2023-06-06T21:55:57.287Z,3.83
2023-06-06T21:58:42.333Z,4.03
2023-06-06T22:01:27.312Z,4.15
2023-06-06T22:04:13.638Z,4.15
2023-06-06T22:07:03.108Z,3.70
2023-06-06T22:09:47.868Z,4.20
2023-06-06T22:12:33.062Z,3.90
2023-06-06T22:15:17.984Z,3.75
2023-06-06T22:18:03.270Z,4.20
2023-06-06T22:20:48.172Z,3.10
2023-06-06T22:23:34.541Z,3.78
2023-06-06T22:26:19.450Z,4.05
2023-06-06T22:29:06.557Z,3.72
2023-06-06T22:31:52.641Z,4.22
2023-06-06T22:34:37.339Z,3.72
2023-06-06T22:37:25.130Z,3.70
2023-06-06T22:40:10.254Z,3.78
2023-06-06T22:42:56.277Z,3.55
2023-06-06T22:45:41.309Z,3.78
2023-06-06T22:48:26.145Z,3.78
2023-06-06T22:51:11.032Z,3.80
2023-06-06T22:53:56.062Z,3.95
2023-06-06T22:56:41.089Z,4.18
2023-06-06T22:59:26.700Z,3.80
2023-06-06T23:02:11.478Z,4.00
2023-06-06T23:04:56.466Z,3.92
2023-06-06T23:07:41.737Z,3.90
2023-06-06T23:10:27.157Z,3.55
2023-06-06T23:13:12.017Z,3.85
2023-06-06T23:15:56.808Z,3.85
2023-06-06T23:18:41.885Z,3.95
2023-06-06T23:21:29.604Z,4.10
2023-06-06T23:24:14.826Z,3.88
2023-06-06T23:26:59.941Z,3.67
2023-06-06T23:29:44.920Z,3.33
2023-06-06T23:32:30.498Z,3.95
2023-06-06T23:35:15.323Z,3.63
2023-06-06T23:38:00.458Z,3.00
2023-06-06T23:40:45.289Z,3.67
2023-06-06T23:43:29.863Z,3.50
2023-06-06T23:46:14.950Z,3.65
2023-06-06T23:48:59.777Z,3.65
2023-06-06T23:51:44.811Z,4.50
2023-06-06T23:54:29.745Z,3.72
2023-06-06T23:57:14.800Z,3.58
2023-06-06T23:59:59.657Z,3.78
